Time;durP1;ratioP1;P1;durP2;ratioP2;P2;SDS_P1;SDS_P2;PMS_P1;PMS_P2;Temp;Humidity;BMP_temperature;BMP_pressure;BME280_temperature;BME280_humidity;BME280_pressure;Samples;Min_cycle;Max_cycle;Signal;HPM_P1;HPM_P2
2022/10/19 00:01:44;;;;;;;21.90;9.80;;;;;;;11.85;69.73;98837.95;105304;1300;76152;-25
2022/10/19 00:04:10;;;;;;;20.60;10.20;;;;;;;11.66;70.08;98835.27;105379;1300;76318;-25
2022/10/19 00:06:38;;;;;;;19.90;10.00;;;;;;;11.51;70.14;98829.80;105297;1300;74678;-25
2022/10/19 00:09:07;;;;;;;14.00;8.20;;;;;;;11.40;70.97;98829.43;105359;1300;63308;-26
2022/10/19 00:11:36;;;;;;;16.40;8.60;;;;;;;11.82;70.85;98827.44;105192;1303;61567;-25
2022/10/19 00:14:03;;;;;;;17.30;9.30;;;;;;;12.26;69.45;98824.56;105182;1303;75941;-25
2022/10/19 00:16:34;;;;;;;15.40;9.20;;;;;;;12.28;69.08;98825.05;105331;1292;75318;-25
2022/10/19 00:19:02;;;;;;;14.70;9.10;;;;;;;12.11;69.36;98826.08;104976;1302;74929;-25
2022/10/19 00:21:29;;;;;;;20.40;9.10;;;;;;;11.90;69.68;98825.50;104700;1307;61009;-25
2022/10/19 00:23:56;;;;;;;27.60;9.60;;;;;;;11.70;70.32;98817.92;105122;1303;62461;-25
2022/10/19 00:26:23;;;;;;;16.40;9.80;;;;;;;11.53;70.49;98817.63;105292;1300;75632;-25
2022/10/19 00:28:55;;;;;;;15.30;10.20;;;;;;;11.36;71.13;98820.05;105111;1300;76301;-25
2022/10/19 00:31:22;;;;;;;19.90;10.60;;;;;;;11.19;72.42;98814.01;104951;1303;72706;-25
2022/10/19 00:33:49;;;;;;;15.20;7.90;;;;;;;11.09;72.63;98812.10;105106;1305;64260;-25
2022/10/19 00:36:18;;;;;;;16.20;7.90;;;;;;;11.55;72.46;98811.73;105301;1300;62573;-25
2022/10/19 00:38:45;;;;;;;23.60;9.50;;;;;;;12.07;70.52;98809.84;105112;1303;75797;-26
2022/10/19 00:41:12;;;;;;;16.50;10.30;;;;;;;12.09;70.18;98808.92;105159;1293;76422;-26
2022/10/19 00:43:54;;;;;;;19.80;10.80;;;;;;;11.91;70.91;98803.34;105264;1301;73770;-25
2022/10/19 00:46:22;;;;;;;19.50;10.50;;;;;;;11.68;71.83;98804.16;105114;1304;61272;-25
2022/10/19 00:48:49;;;;;;;17.40;10.60;;;;;;;11.52;72.51;98801.58;105155;1303;61142;-26
2022/10/19 00:51:16;;;;;;;22.00;11.00;;;;;;;11.37;73.18;98802.38;105071;1302;75964;-25
2022/10/19 00:53:43;;;;;;;21.80;10.00;;;;;;;11.24;73.71;98804.06;105282;1297;76503;-25
2022/10/19 00:56:12;;;;;;;20.80;10.00;;;;;;;11.17;74.10;98802.40;105266;1301;73491;-25
2022/10/19 00:58:39;;;;;;;22.40;11.30;;;;;;;11.52;73.53;98801.52;105054;1303;60731;-25
2022/10/19 01:01:06;;;;;;;21.90;10.50;;;;;;;11.83;72.26;98800.88;105124;1303;62244;-27
2022/10/19 01:03:33;;;;;;;20.10;11.00;;;;;;;11.87;71.90;98793.98;105179;1303;75935;-25
2022/10/19 01:06:00;;;;;;;18.70;10.50;;;;;;;11.77;72.48;98793.29;105310;1303;74337;-26
2022/10/19 01:08:27;;;;;;;24.50;10.50;;;;;;;11.61;72.96;98793.48;105299;1301;74684;-25
2022/10/19 01:11:06;;;;;;;17.50;10.30;;;;;;;11.48;73.86;98788.77;105076;1304;61976;-25
2022/10/19 01:13:44;;;;;;;24.20;10.60;;;;;;;11.36;74.55;98785.58;105321;1302;61480;-25
2022/10/19 01:16:17;;;;;;;13.30;8.00;;;;;;;11.41;74.58;98784.27;105196;1294;76034;-25
2022/10/19 01:18:47;;;;;;;;;;;;;;;11.88;73.26;98787.41;105060;1303;75379;-25
2022/10/19 01:21:36;;;;;;;19.40;10.10;;;;;;;12.10;72.14;98784.79;105166;1300;74685;-25
2022/10/19 01:24:31;;;;;;;14.60;9.00;;;;;;;12.04;72.09;98777.46;104956;1304;62286;-26
2022/10/19 01:27:08;;;;;;;19.70;9.60;;;;;;;11.88;73.05;98778.20;105022;1303;61037;-25
2022/10/19 01:29:51;;;;;;;17.70;10.20;;;;;;;11.79;73.52;98782.84;105087;1302;76014;-25
2022/10/19 01:32:39;;;;;;;15.60;9.90;;;;;;;11.62;74.18;98776.93;105244;1301;75107;-25
2022/10/19 01:35:21;;;;;;;20.20;8.10;;;;;;;11.59;74.24;98778.85;104774;1314;75014;-25
2022/10/19 01:37:52;;;;;;;16.40;8.90;;;;;;;11.88;73.71;98778.53;105013;1303;62219;-25
2022/10/19 01:40:44;;;;;;;17.10;9.60;;;;;;;12.20;72.25;98779.65;105061;1303;61033;-25
2022/10/19 01:43:18;;;;;;;25.90;10.30;;;;;;;12.05;72.77;98781.58;104892;1303;76089;-25
2022/10/19 01:45:53;;;;;;;12.20;8.10;;;;;;;11.81;73.65;98785.58;104805;1297;76332;-25
2022/10/19 01:48:22;;;;;;;19.40;9.80;;;;;;;11.67;74.80;98786.18;104966;1304;73504;-25
2022/10/19 01:51:06;;;;;;;18.80;9.60;;;;;;;11.63;75.21;98784.07;104892;1306;61322;-25
2022/10/19 01:53:38;;;;;;;13.50;8.10;;;;;;;11.60;75.53;98785.55;105143;1308;61375;-25
2022/10/19 01:56:05;;;;;;;13.40;8.20;;;;;;;12.10;74.05;98779.20;105072;1304;74847;-25
2022/10/19 01:58:34;;;;;;;19.40;9.20;;;;;;;12.28;73.14;98775.31;104983;1300;76348;-26
2022/10/19 02:01:04;;;;;;;13.50;7.00;;;;;;;12.24;73.23;98776.13;104666;1310;73721;-25
2022/10/19 02:03:32;;;;;;;12.70;8.10;;;;;;;12.00;74.52;98768.12;104806;1311;60258;-25
2022/10/19 02:05:59;;;;;;;14.10;9.10;;;;;;;11.87;75.38;98762.58;104806;1305;62225;-25
2022/10/19 02:08:28;;;;;;;13.90;7.60;;;;;;;11.88;75.55;98755.73;104779;1306;75874;-25
2022/10/19 02:10:56;;;;;;;12.20;6.80;;;;;;;11.96;75.48;98750.20;104959;1302;75282;-26
2022/10/19 02:13:23;;;;;;;11.50;7.20;;;;;;;12.48;73.99;98758.33;104805;1306;74170;-25
2022/10/19 02:15:52;;;;;;;12.50;7.80;;;;;;;12.75;72.60;98760.31;105221;1303;62439;-25
2022/10/19 02:18:31;;;;;;;16.00;8.40;;;;;;;12.74;72.31;98759.87;105052;1305;61074;-26
2022/10/19 02:21:04;;;;;;;14.20;9.10;;;;;;;12.59;73.05;98756.02;105029;1296;76000;-25
2022/10/19 02:23:33;;;;;;;14.50;7.40;;;;;;;12.41;73.88;98750.02;104866;1307;75478;-25
2022/10/19 02:26:02;;;;;;;17.50;8.30;;;;;;;12.35;74.02;98758.27;104865;1305;73526;-25
2022/10/19 02:28:32;;;;;;;15.40;8.90;;;;;;;12.18;75.00;98762.80;104873;1306;61315;-25
2022/10/19 02:31:01;;;;;;;17.80;7.60;;;;;;;12.08;75.59;98757.13;105027;1304;60449;-25
2022/10/19 02:33:29;;;;;;;12.50;7.60;;;;;;;12.52;74.32;98757.75;104900;1305;75939;-25
2022/10/19 02:35:58;;;;;;;18.50;7.90;;;;;;;12.79;73.17;98756.41;105021;1304;75434;-25
2022/10/19 02:38:27;;;;;;;16.90;8.90;;;;;;;12.64;73.48;98754.86;104795;1306;75095;-26
2022/10/19 02:41:17;;;;;;;13.30;7.80;;;;;;;12.44;74.19;98765.77;104845;1305;62176;-25
2022/10/19 02:43:53;;;;;;;14.80;9.90;;;;;;;12.29;74.99;98776.05;104964;1303;61152;-26
2022/10/19 02:46:40;;;;;;;16.80;8.80;;;;;;;12.06;76.00;98781.45;104923;1306;75971;-25
2022/10/19 02:49:14;;;;;;;12.00;6.50;;;;;;;11.91;76.92;98784.91;104888;1300;75594;-25
2022/10/19 02:52:03;;;;;;;14.50;7.40;;;;;;;12.23;75.84;98779.17;104994;1295;73410;-26
2022/10/19 02:54:33;;;;;;;16.40;8.40;;;;;;;12.37;75.50;98778.59;104862;1303;61430;-26
2022/10/19 02:57:06;;;;;;;11.50;7.90;;;;;;;12.38;75.37;98777.14;104868;1310;62487;-26
2022/10/19 02:59:36;;;;;;;16.70;8.90;;;;;;;12.10;76.58;98776.70;104901;1305;73657;-25
2022/10/19 03:02:04;;;;;;;14.00;9.10;;;;;;;11.91;77.67;98780.85;104756;1302;76292;-25
2022/10/19 03:04:34;;;;;;;11.20;6.30;;;;;;;11.85;78.17;98790.97;105036;1307;74828;-25
2022/10/19 03:07:03;;;;;;;12.20;7.40;;;;;;;11.89;78.41;98801.77;105044;1303;62796;-25
2022/10/19 03:09:33;;;;;;;14.30;7.50;;;;;;;12.28;77.05;98789.05;104991;1305;61173;-25
2022/10/19 03:12:03;;;;;;;13.30;7.90;;;;;;;12.37;76.49;98774.61;104886;1301;76164;-25
2022/10/19 03:14:33;;;;;;;11.90;8.50;;;;;;;12.00;77.92;98787.05;105143;1305;75473;-26
2022/10/19 03:24:40;;;;;;;10.70;7.60;;;;;;;11.86;79.62;98814.26;99280;1336;600618;-23
2022/10/19 03:27:07;;;;;;;12.30;7.60;;;;;;;11.78;79.73;98820.48;101279;1312;61271;-23
2022/10/19 03:29:34;;;;;;;9.00;6.80;;;;;;;11.70;79.91;98827.27;101311;1305;62973;-23
2022/10/19 03:32:01;;;;;;;8.90;6.00;;;;;;;11.57;80.92;98839.57;101248;1312;72689;-23
2022/10/19 03:34:28;;;;;;;9.50;5.80;;;;;;;11.50;81.26;98837.07;101352;1312;76764;-23
2022/10/19 03:36:57;;;;;;;8.30;5.30;;;;;;;11.70;79.91;98848.31;101380;1312;74217;-23
2022/10/19 03:39:25;;;;;;;7.30;4.30;;;;;;;11.68;79.11;98852.27;100483;1310;1323953;-23
2022/10/19 03:41:52;;;;;;;6.10;3.40;;;;;;;11.55;79.27;98849.63;101572;1302;61166;-23
2022/10/19 03:44:19;;;;;;;3.80;2.70;;;;;;;11.31;79.96;98849.99;101395;1308;74544;-23
2022/10/19 03:46:46;;;;;;;7.60;3.80;;;;;;;11.14;80.06;98843.50;101541;1294;76594;-24
2022/10/19 03:49:13;;;;;;;6.00;2.10;;;;;;;11.39;79.48;98847.04;101543;1302;73876;-24
2022/10/19 03:51:40;;;;;;;2.10;1.80;;;;;;;11.57;78.56;98852.96;101577;1303;62862;-23
2022/10/19 03:54:12;;;;;;;2.50;1.50;;;;;;;11.26;79.06;98856.02;101637;1305;61543;-24
2022/10/19 03:56:39;;;;;;;3.00;1.70;;;;;;;11.18;79.06;98860.34;101222;1315;74491;-24
2022/10/19 03:59:06;;;;;;;1.80;1.30;;;;;;;11.09;79.94;98868.41;101468;1296;76548;-24
2022/10/19 04:01:42;;;;;;;4.10;1.20;;;;;;;11.38;78.42;98869.56;101623;1303;74153;-24
2022/10/19 04:04:14;;;;;;;3.70;1.20;;;;;;;11.53;77.30;98873.83;101341;1311;62169;-24
2022/10/19 04:06:43;;;;;;;2.00;1.20;;;;;;;11.39;77.38;98872.59;101427;1304;61713;-24
2022/10/19 04:09:11;;;;;;;1.70;1.00;;;;;;;11.24;78.23;98872.69;101386;1306;75626;-24
2022/10/19 04:11:39;;;;;;;2.20;1.20;;;;;;;10.98;79.33;98871.42;101391;1303;76807;-24
2022/10/19 04:14:06;;;;;;;2.60;1.30;;;;;;;10.89;79.76;98876.67;101582;1312;75152;-24
2022/10/19 04:16:33;;;;;;;1.30;1.00;;;;;;;11.00;79.10;98873.48;101433;1303;63029;-24
2022/10/19 04:19:00;;;;;;;3.10;1.50;;;;;;;11.11;78.25;98877.81;101342;1305;62868;-24
2022/10/19 04:21:29;;;;;;;2.00;1.10;;;;;;;11.05;78.82;98882.64;101339;1315;75557;-24
2022/10/19 04:24:00;;;;;;;2.70;0.90;;;;;;;10.94;78.63;98883.05;101477;1312;76665;-24
2022/10/19 04:26:27;;;;;;;2.50;0.80;;;;;;;10.79;79.44;98881.56;101337;1304;75344;-24
2022/10/19 04:28:58;;;;;;;1.00;0.60;;;;;;;10.72;79.79;98881.75;101175;1310;63368;-24
2022/10/19 04:31:26;;;;;;;1.10;0.80;;;;;;;11.02;78.48;98883.24;100939;1313;62781;-24
2022/10/19 04:33:53;;;;;;;0.80;0.70;;;;;;;11.20;77.48;98884.45;101835;1306;75372;-24
2022/10/19 04:36:20;;;;;;;1.20;0.60;;;;;;;11.07;77.53;98881.98;101922;1305;76439;-24
2022/10/19 04:38:47;;;;;;;0.70;0.70;;;;;;;10.94;78.07;98880.60;101849;1298;74184;-24
2022/10/19 04:41:16;;;;;;;5.30;0.60;;;;;;;10.68;79.02;98884.73;101857;1304;62768;-23
2022/10/19 04:43:46;;;;;;;0.60;0.50;;;;;;;10.64;79.39;98887.86;101830;1301;61501;-23
2022/10/19 04:46:16;;;;;;;0.80;0.50;;;;;;;10.97;78.31;98884.04;101884;1305;75612;-24
2022/10/19 04:48:43;;;;;;;0.50;0.50;;;;;;;10.92;77.85;98885.30;101744;1305;75813;-23
2022/10/19 04:51:10;;;;;;;0.40;0.40;;;;;;;10.92;78.00;98890.21;101830;1301;74100;-24
2022/10/19 04:53:38;;;;;;;2.00;0.60;;;;;;;10.45;79.35;98893.20;101844;1305;62068;-23
2022/10/19 04:56:11;;;;;;;0.60;0.30;;;;;;;10.38;79.66;98901.13;101762;1307;62844;-23
2022/10/19 04:58:38;;;;;;;4.90;0.40;;;;;;;10.41;79.82;98899.58;101830;1301;76094;-24
2022/10/19 05:01:10;;;;;;;0.50;0.30;;;;;;;10.56;79.19;98902.73;101841;1305;76732;-24
2022/10/19 05:03:38;;;;;;;0.40;0.40;;;;;;;10.73;78.26;98907.95;101876;1297;74023;-24
2022/10/19 05:06:05;;;;;;;0.40;0.40;;;;;;;10.61;78.70;98915.89;101937;1305;61566;-24
2022/10/19 05:08:32;;;;;;;3.80;0.40;;;;;;;10.51;79.23;98918.28;101909;1303;62861;-23
2022/10/19 05:11:04;;;;;;;0.90;0.40;;;;;;;10.50;79.99;98918.30;101900;1299;74486;-23
2022/10/19 05:13:31;;;;;;;0.90;0.40;;;;;;;10.61;78.98;98918.60;101801;1304;75858;-24
2022/10/19 05:15:59;;;;;;;0.40;0.40;;;;;;;10.85;78.07;98917.71;101953;1301;74186;-23
2022/10/19 05:18:27;;;;;;;0.40;0.30;;;;;;;10.75;78.24;98918.52;101797;1305;61855;-23
2022/10/19 05:21:05;;;;;;;1.00;0.40;;;;;;;10.61;79.13;98926.08;101857;1304;62573;-23
2022/10/19 05:23:32;;;;;;;0.50;0.40;;;;;;;10.45;79.66;98925.55;101744;1305;75297;-23
2022/10/19 05:26:10;;;;;;;0.80;0.30;;;;;;;10.42;80.06;98928.74;101913;1301;76144;-23
2022/10/19 05:28:37;;;;;;;3.60;0.40;;;;;;;10.68;79.38;98926.02;101789;1299;75368;-23
2022/10/19 05:31:12;;;;;;;0.70;0.40;;;;;;;10.99;77.79;98927.82;101992;1297;63080;-23
2022/10/19 05:33:40;;;;;;;0.40;0.40;;;;;;;10.76;78.76;98937.90;101881;1299;62516;-23
2022/10/19 05:36:13;;;;;;;2.80;0.50;;;;;;;10.72;78.85;98942.19;101927;1305;75504;-24
2022/10/19 05:38:41;;;;;;;0.40;0.40;;;;;;;10.42;80.06;98935.80;101913;1305;76692;-23
2022/10/19 05:41:09;;;;;;;0.60;0.40;;;;;;;10.35;80.97;98943.13;101880;1303;73310;-23
2022/10/19 05:43:36;;;;;;;0.50;0.40;;;;;;;10.68;79.52;98943.92;101866;1306;62646;-23
2022/10/19 05:46:04;;;;;;;0.30;0.30;;;;;;;10.83;79.24;98947.21;101877;1305;62564;-23
2022/10/19 05:48:32;;;;;;;0.90;0.50;;;;;;;10.72;79.42;98949.79;101786;1305;73624;-23
2022/10/19 05:51:00;;;;;;;0.90;0.50;;;;;;;10.68;79.78;98951.08;101868;1308;75892;-24
2022/10/19 05:53:28;;;;;;;0.80;0.40;;;;;;;10.52;81.06;98952.53;101821;1301;75189;-25
2022/10/19 05:55:55;;;;;;;0.90;0.50;;;;;;;10.54;81.04;98951.87;101865;1301;63459;-23
2022/10/19 05:58:22;;;;;;;0.30;0.30;;;;;;;10.96;79.59;98953.94;101959;1305;62868;-23
2022/10/19 06:00:53;;;;;;;1.00;0.70;;;;;;;10.86;79.12;98950.93;102000;1302;74683;-23
2022/10/19 06:03:20;;;;;;;1.20;0.50;;;;;;;10.77;79.48;98953.73;101961;1301;77156;-24
2022/10/19 06:05:48;;;;;;;2.80;0.40;;;;;;;10.58;80.84;98951.33;101963;1294;74629;-23
2022/10/19 06:08:16;;;;;;;1.10;0.50;;;;;;;10.53;81.42;98954.91;101892;1302;63510;-23
2022/10/19 06:10:44;;;;;;;0.60;0.40;;;;;;;10.98;79.85;98953.06;101836;1300;62891;-23
2022/10/19 06:13:11;;;;;;;1.10;0.50;;;;;;;11.41;77.94;98951.70;102148;1296;74099;-25
2022/10/19 06:15:39;;;;;;;0.40;0.40;;;;;;;11.25;78.03;98946.27;102160;1302;75756;-25
2022/10/19 06:18:07;;;;;;;0.40;0.40;;;;;;;10.99;79.33;98947.45;101877;1305;74022;-25
2022/10/19 06:20:35;;;;;;;1.20;0.60;;;;;;;10.85;79.91;98950.67;101902;1298;61858;-25
2022/10/19 06:23:04;;;;;;;0.80;0.50;;;;;;;10.90;80.39;98946.81;101708;1301;62021;-25
2022/10/19 06:25:32;;;;;;;0.90;0.70;;;;;;;11.28;79.24;98938.15;102062;1305;74555;-26
2022/10/19 06:27:59;;;;;;;2.70;0.80;;;;;;;11.64;77.66;98928.95;101914;1305;75800;-26
2022/10/19 06:30:27;;;;;;;1.70;1.00;;;;;;;11.62;77.12;98921.88;101956;1295;74046;-26
2022/10/19 06:32:54;;;;;;;1.50;1.00;;;;;;;11.52;77.61;98923.14;101978;1303;61829;-25
2022/10/19 06:35:21;;;;;;;1.00;0.70;;;;;;;11.16;78.87;98922.69;101944;1302;62804;-25
2022/10/19 06:37:48;;;;;;;0.90;0.70;;;;;;;11.05;79.77;98923.96;101919;1302;73287;-25
2022/10/19 06:40:16;;;;;;;1.70;0.50;;;;;;;11.35;79.17;98924.53;101897;1296;75843;-25
2022/10/19 06:42:43;;;;;;;0.90;0.70;;;;;;;11.75;77.17;98919.39;101861;1305;74936;-25
2022/10/19 06:45:10;;;;;;;1.60;0.80;;;;;;;11.96;76.22;98918.40;102061;1303;61392;-25
2022/10/19 06:47:37;;;;;;;1.20;0.90;;;;;;;11.96;75.90;98922.23;101896;1302;61786;-25
2022/10/19 06:50:05;;;;;;;2.20;1.10;;;;;;;11.69;76.26;98926.14;102048;1297;75697;-25
2022/10/19 06:52:33;;;;;;;1.20;0.90;;;;;;;11.46;77.64;98928.35;101842;1302;75530;-25
2022/10/19 06:55:01;;;;;;;1.40;1.00;;;;;;;11.37;78.10;98923.39;101827;1307;74809;-25
2022/10/19 06:57:28;;;;;;;2.00;1.00;;;;;;;11.74;77.17;98918.08;101968;1302;62797;-26
2022/10/19 06:59:55;;;;;;;1.50;1.00;;;;;;;12.09;75.59;98921.07;102077;1302;61048;-25
2022/10/19 07:02:22;;;;;;;3.30;1.20;;;;;;;12.08;75.26;98920.66;102003;1302;75536;-25
2022/10/19 07:04:49;;;;;;;2.50;1.60;;;;;;;11.79;76.98;98919.04;101906;1295;75537;-25
2022/10/19 07:07:16;;;;;;;3.10;1.50;;;;;;;11.65;77.35;98917.45;101887;1304;75197;-25
2022/10/19 07:09:43;;;;;;;1.70;1.10;;;;;;;11.49;77.81;98917.13;102089;1302;62107;-25
2022/10/19 07:12:10;;;;;;;2.00;0.90;;;;;;;11.51;78.07;98920.05;101842;1305;62881;-25
2022/10/19 07:14:38;;;;;;;1.30;0.80;;;;;;;11.76;77.03;98920.80;102071;1302;75389;-25
2022/10/19 07:17:06;;;;;;;1.60;0.80;;;;;;;11.82;76.55;98920.52;101950;1302;75677;-26
2022/10/19 07:19:33;;;;;;;1.10;0.90;;;;;;;11.67;77.08;98920.95;101878;1305;75242;-25
2022/10/19 07:22:00;;;;;;;5.20;1.00;;;;;;;11.40;77.87;98913.20;102050;1302;61323;-25
2022/10/19 07:24:27;;;;;;;3.20;0.80;;;;;;;11.29;78.23;98914.94;101864;1302;61828;-26
2022/10/19 07:26:54;;;;;;;0.80;0.50;;;;;;;11.29;78.74;98918.83;102026;1302;74329;-25
2022/10/19 07:29:21;;;;;;;2.30;1.10;;;;;;;11.70;77.37;98915.29;101973;1302;75257;-25
2022/10/19 07:31:48;;;;;;;1.80;1.00;;;;;;;11.89;76.19;98914.45;101937;1302;74009;-25
2022/10/19 07:34:15;;;;;;;1.80;1.00;;;;;;;12.09;75.42;98906.27;101944;1289;61568;-25
2022/10/19 07:36:46;;;;;;;1.70;1.00;;;;;;;11.99;76.14;98913.02;102029;1294;61104;-25
2022/10/19 07:39:15;;;;;;;4.00;1.20;;;;;;;12.05;76.27;98912.94;101780;1308;76676;-26
2022/10/19 07:41:43;;;;;;;2.00;1.50;;;;;;;11.97;75.52;98904.00;102130;1304;76952;-25
2022/10/19 07:44:10;;;;;;;4.40;1.50;;;;;;;12.04;75.65;98915.44;102047;1303;74895;-25
2022/10/19 07:46:41;;;;;;;5.10;1.40;;;;;;;12.10;75.01;98906.16;101997;1302;62547;-25
2022/10/19 07:49:12;;;;;;;2.80;1.60;;;;;;;12.15;73.87;98901.63;101930;1303;61655;-25
2022/10/19 07:51:39;;;;;;;2.70;1.30;;;;;;;12.24;73.64;98907.41;101786;1300;76410;-26
2022/10/19 07:54:07;;;;;;;3.50;1.70;;;;;;;12.25;71.62;98900.70;101928;1301;76531;-25
2022/10/19 07:56:34;;;;;;;2.70;1.30;;;;;;;12.56;69.29;98886.54;101984;1302;73845;-25
2022/10/19 07:59:01;;;;;;;4.40;1.80;;;;;;;12.52;68.82;98895.95;101935;1302;61607;-25
2022/10/19 08:01:34;;;;;;;3.90;1.70;;;;;;;12.28;69.94;98893.61;101956;1302;62574;-25
2022/10/19 08:04:01;;;;;;;4.20;2.00;;;;;;;11.84;70.89;98885.73;101898;1302;74703;-25
2022/10/19 08:06:48;;;;;;;4.30;1.60;;;;;;;11.83;71.39;98882.27;102091;1301;74726;-25
2022/10/19 08:09:15;;;;;;;2.30;1.70;;;;;;;11.88;71.10;98879.23;102122;1301;73865;-25
2022/10/19 08:12:03;;;;;;;3.50;1.80;;;;;;;11.82;71.45;98874.61;101984;1300;62976;-25
2022/10/19 08:14:31;;;;;;;7.00;1.80;;;;;;;11.89;71.38;98872.78;102030;1298;62994;-26
2022/10/19 08:16:59;;;;;;;2.70;2.10;;;;;;;11.90;71.58;98873.18;101944;1297;76368;-25
2022/10/19 08:19:26;;;;;;;3.30;1.80;;;;;;;11.98;71.67;98868.08;101932;1304;75933;-25
2022/10/19 08:21:53;;;;;;;2.70;1.80;;;;;;;12.08;71.09;98862.39;102088;1300;73158;-25
2022/10/19 08:24:20;;;;;;;4.30;2.20;;;;;;;12.02;70.41;98854.18;101944;1305;61955;-25
2022/10/19 08:26:49;;;;;;;5.10;1.50;;;;;;;12.20;70.38;98849.60;102018;1302;62772;-25
2022/10/19 08:29:18;;;;;;;2.60;1.70;;;;;;;12.33;69.30;98847.96;102117;1303;75522;-25
2022/10/19 08:31:46;;;;;;;4.60;1.80;;;;;;;12.58;68.45;98840.72;101850;1305;76304;-25
2022/10/19 08:34:14;;;;;;;4.20;2.30;;;;;;;12.71;68.11;98844.98;101905;1302;73840;-25
2022/10/19 08:36:41;;;;;;;7.00;2.30;;;;;;;12.75;67.63;98840.45;101845;1301;62875;-25
2022/10/19 08:39:13;;;;;;;9.30;2.20;;;;;;;12.56;66.66;98834.50;101987;1295;61506;-25
2022/10/19 08:41:40;;;;;;;5.00;1.90;;;;;;;12.36;66.62;98826.75;101966;1305;76651;-25
2022/10/19 08:44:15;;;;;;;5.80;2.20;;;;;;;12.16;66.16;98832.21;101857;1305;75240;-25
2022/10/19 08:47:07;;;;;;;7.70;2.20;;;;;;;12.10;67.06;98829.27;101890;1311;75206;-25
2022/10/19 08:49:36;;;;;;;2.50;1.60;;;;;;;12.10;66.27;98820.39;101871;1305;62620;-25
2022/10/19 08:52:25;;;;;;;4.20;2.10;;;;;;;12.01;66.80;98829.35;101953;1302;62828;-25
2022/10/19 08:55:04;;;;;;;7.20;2.20;;;;;;;12.00;67.34;98837.70;101812;1302;76391;-25
2022/10/19 08:57:49;;;;;;;3.30;2.10;;;;;;;11.95;67.04;98831.49;101904;1302;76607;-23
2022/10/19 09:00:34;;;;;;;2.30;1.80;;;;;;;11.80;67.03;98840.98;101890;1300;75094;-23
2022/10/19 09:03:02;;;;;;;6.30;1.70;;;;;;;12.01;67.44;98842.45;102012;1305;62889;-23
2022/10/19 09:05:34;;;;;;;2.30;1.50;;;;;;;12.35;66.98;98840.77;101921;1305;62600;-23
2022/10/19 09:08:01;;;;;;;3.60;2.20;;;;;;;12.82;65.34;98829.85;101851;1308;74378;-23
2022/10/19 09:10:36;;;;;;;3.90;2.00;;;;;;;13.07;64.97;98833.05;102127;1302;76370;-23
2022/10/19 09:13:34;;;;;;;3.60;1.80;;;;;;;13.02;63.81;98820.95;101859;1301;74290;-23
2022/10/19 09:16:20;;;;;;;4.40;1.90;;;;;;;12.72;64.17;98821.38;101823;1304;62071;-23
2022/10/19 09:18:48;;;;;;;6.10;1.60;;;;;;;12.65;64.60;98827.25;102131;1302;62784;-23
2022/10/19 09:21:38;;;;;;;4.60;2.30;;;;;;;12.57;64.02;98813.65;102056;1302;75134;-23
2022/10/19 09:24:35;;;;;;;3.90;1.80;;;;;;;12.75;63.76;98817.25;101932;1302;76007;-23
2022/10/19 09:27:03;;;;;;;4.60;1.90;;;;;;;12.62;64.15;98813.02;101849;1297;75229;-23
2022/10/19 09:29:38;;;;;;;5.40;2.20;;;;;;;12.73;64.40;98818.33;101918;1303;61764;-24
2022/10/19 09:32:14;;;;;;;4.30;2.10;;;;;;;12.66;63.23;98801.02;101932;1305;62606;-23
2022/10/19 09:35:01;;;;;;;4.60;2.00;;;;;;;12.42;64.34;98807.08;102139;1302;76546;-24
2022/10/19 09:37:29;;;;;;;4.10;2.30;;;;;;;12.34;63.58;98803.44;101894;1305;75828;-23
2022/10/19 09:40:01;;;;;;;5.80;2.50;;;;;;;12.19;63.10;98801.15;101861;1304;75001;-24
2022/10/19 09:42:29;;;;;;;7.40;2.40;;;;;;;12.02;64.45;98800.42;101952;1305;61807;-24
2022/10/19 09:44:58;;;;;;;4.30;2.50;;;;;;;11.96;65.30;98806.12;101792;1308;62755;-24
2022/10/19 09:47:36;;;;;;;3.50;2.30;;;;;;;12.06;65.57;98808.42;101810;1302;76592;-23
2022/10/19 09:50:18;;;;;;;4.70;2.30;;;;;;;12.04;65.15;98808.11;101885;1305;76744;-24
2022/10/19 09:52:46;;;;;;;3.50;2.30;;;;;;;11.98;64.86;98799.00;102126;1308;73941;-25
2022/10/19 09:55:13;;;;;;;4.10;2.10;;;;;;;12.06;65.67;98801.86;101921;1304;61249;-25
2022/10/19 09:57:57;;;;;;;7.50;2.30;;;;;;;12.07;65.38;98798.80;101980;1302;61776;-25
2022/10/19 10:00:34;;;;;;;4.40;2.60;;;;;;;12.23;65.63;98800.08;101883;1305;76388;-25
2022/10/19 10:19:05;;;;;;;5.20;1.90;;;;;;;12.04;65.33;98791.56;99624;1318;615492;-24
2022/10/19 10:21:51;;;;;;;6.10;2.30;;;;;;;12.14;64.78;98787.49;101105;1318;61719;-24
2022/10/19 10:24:20;;;;;;;10.70;1.90;;;;;;;12.10;63.67;98782.65;101352;1315;61241;-25
2022/10/19 10:26:55;;;;;;;6.00;2.20;;;;;;;12.14;62.87;98773.78;101075;1315;72695;-24
2022/10/19 10:29:25;;;;;;;3.80;1.90;;;;;;;12.10;62.80;98783.91;101316;1314;75665;-24
2022/10/19 10:32:04;;;;;;;3.70;2.20;;;;;;;12.15;61.64;98781.15;100460;1313;1106827;-24
2022/10/19 10:34:34;;;;;;;5.60;1.80;;;;;;;12.10;62.16;98780.39;101268;1311;61120;-25
2022/10/19 10:37:24;;;;;;;3.70;1.80;;;;;;;12.11;61.68;98766.92;101576;1308;61774;-24
2022/10/19 10:39:52;;;;;;;3.10;1.80;;;;;;;12.18;62.10;98768.86;101363;1312;73833;-25
2022/10/19 10:42:25;;;;;;;2.50;1.80;;;;;;;12.30;61.97;98769.33;101445;1304;74767;-24
2022/10/19 10:44:55;;;;;;;8.00;1.80;;;;;;;12.45;61.23;98766.73;101370;1310;74164;-24
2022/10/19 10:47:22;;;;;;;3.40;1.70;;;;;;;12.40;61.71;98755.39;101691;1309;61179;-24
2022/10/19 10:50:04;;;;;;;3.80;1.40;;;;;;;12.34;61.32;98750.14;101489;1304;61190;-24
2022/10/19 10:52:32;;;;;;;5.00;1.90;;;;;;;12.23;61.59;98749.94;101474;1310;73472;-25
2022/10/19 10:55:13;;;;;;;6.40;1.90;;;;;;;12.18;62.33;98758.46;101716;1313;75834;-24
2022/10/19 10:57:44;;;;;;;3.70;1.70;;;;;;;12.10;62.04;98755.16;101672;1307;74254;-24
2022/10/19 11:00:12;;;;;;;3.30;1.90;;;;;;;12.11;62.24;98755.59;101376;1308;61938;-24
2022/10/19 11:02:53;;;;;;;5.00;1.90;;;;;;;12.07;62.33;98750.23;101469;1301;61741;-24
2022/10/19 11:05:27;;;;;;;6.80;2.20;;;;;;;12.03;63.11;98752.48;101498;1301;74599;-24
2022/10/19 11:08:20;;;;;;;11.80;2.10;;;;;;;12.07;62.69;98745.41;101318;1309;75816;-24
2022/10/19 11:11:12;;;;;;;5.20;2.00;;;;;;;12.06;62.39;98736.25;101611;1309;73782;-24
2022/10/19 11:13:57;;;;;;;6.50;2.10;;;;;;;12.09;62.62;98733.54;101602;1307;62024;-24
2022/10/19 11:16:32;;;;;;;5.80;2.40;;;;;;;12.11;62.59;98728.44;101497;1307;61684;-24
2022/10/19 11:19:21;;;;;;;3.80;2.20;;;;;;;12.08;61.80;98728.25;101293;1312;73702;-24
2022/10/19 11:22:14;;;;;;;2.70;2.10;;;;;;;12.02;61.73;98729.31;101437;1312;74304;-24
2022/10/19 11:25:06;;;;;;;3.20;1.90;;;;;;;12.05;62.19;98731.61;101422;1308;74335;-24
2022/10/19 11:27:41;;;;;;;3.80;2.50;;;;;;;12.07;62.99;98732.98;101503;1305;61789;-25
2022/10/19 11:30:10;;;;;;;;;;;;;;;12.09;62.41;98730.42;101460;1310;62005;-25
2022/10/19 11:32:52;;;;;;;4.50;2.30;;;;;;;12.16;62.22;98729.06;101570;1308;74615;-24
2022/10/19 11:35:31;;;;;;;4.10;2.20;;;;;;;12.27;61.24;98723.55;101469;1309;75781;-24
2022/10/19 11:38:11;;;;;;;10.90;2.20;;;;;;;12.37;60.82;98721.69;101448;1312;74588;-24
2022/10/19 11:41:10;;;;;;;6.30;2.00;;;;;;;12.52;59.68;98720.68;101499;1301;61660;-24
2022/10/19 11:44:08;;;;;;;5.10;2.10;;;;;;;12.58;57.54;98708.38;101676;1308;61912;-24
2022/10/19 11:47:28;;;;;;;4.40;2.20;;;;;;;12.48;58.12;98708.52;101363;1312;74789;-25
2022/10/19 11:50:02;;;;;;;5.70;1.90;;;;;;;12.16;58.15;98706.91;101119;1315;75606;-24
2022/10/19 11:52:33;;;;;;;6.00;2.00;;;;;;;12.07;58.39;98693.12;101485;1309;73915;-24
2022/10/19 11:55:26;;;;;;;3.90;1.40;;;;;;;11.98;58.09;98691.02;101469;1311;61937;-24
2022/10/19 11:58:27;;;;;;;5.20;1.80;;;;;;;11.88;58.03;98682.04;101415;1310;61869;-24
2022/10/19 12:01:01;;;;;;;6.10;1.90;;;;;;;11.84;58.39;98683.08;101420;1310;74417;-24
2022/10/19 12:03:53;;;;;;;3.80;1.90;;;;;;;11.80;59.00;98693.00;101486;1308;75698;-26
2022/10/19 14:57:15;;;;;;;3.40;1.50;;;;;;;10.68;64.95;98594.12;100147;1318;61657;-24
2022/10/19 14:59:49;;;;;;;2.60;1.10;;;;;;;10.63;65.37;98590.77;101990;1284;61227;-24